Igerna, New York
Current Conditions -  °F | °C
As of 11:53 AM on Tuesday 27 Jan 2015 (Local Time) from KGFL Reporting Station
Moderate Snow Moderate Snow  
Wind Chill:   Ceiling: 1300
Heat Index: 12°   Visibility: 0.5mi
Dew Point:   Wind: 6mph
Humidity: 80%   Direction: 40°NE
Pressure: 29.82"   Gusts: NA
Location:  43.7289°N, 73.9027°W
Report Text: KGFL 271653Z AUTO 04005KT 1/2SM SN VV013 M11/M14 A2982 RMK AO2 SLP111 P0000 T11111139
Loading
Personal Weather Stations






























Interactive Weather Map New forecast layout! Learn more

10-Day Weather Forecast

Advertisements
Track Severe Weather on mobile